sensor_id;sensor_type;location;lat;lon;timestamp;pressure;altitude;pressure_sealevel;temperature;humidity
50710;BME280;37033;49.994;21.992;2023-03-31T00:00:28;98500.33;;;5.74;82.13
50710;BME280;37033;49.994;21.992;2023-03-31T00:03:14;98502.41;;;5.74;82.19
50710;BME280;37033;49.994;21.992;2023-03-31T00:05:50;98497.45;;;5.75;81.99
50710;BME280;37033;49.994;21.992;2023-03-31T00:08:25;98490.19;;;5.76;81.86
50710;BME280;37033;49.994;21.992;2023-03-31T00:11:00;98494.03;;;5.77;82.06
50710;BME280;37033;49.994;21.992;2023-03-31T00:13:32;98493.35;;;5.78;82.66
50710;BME280;37033;49.994;21.992;2023-03-31T00:16:04;98490.02;;;5.78;82.58
50710;BME280;37033;49.994;21.992;2023-03-31T00:18:36;98486.86;;;5.79;82.65
50710;BME280;37033;49.994;21.992;2023-03-31T00:21:11;98481.02;;;5.81;82.90
50710;BME280;37033;49.994;21.992;2023-03-31T00:23:42;98487.08;;;5.81;82.95
50710;BME280;37033;49.994;21.992;2023-03-31T00:26:13;98489.42;;;5.82;83.03
50710;BME280;37033;49.994;21.992;2023-03-31T00:28:43;98476.45;;;5.83;83.29
50710;BME280;37033;49.994;21.992;2023-03-31T00:31:14;98467.46;;;5.85;82.99
50710;BME280;37033;49.994;21.992;2023-03-31T00:33:45;98467.85;;;5.87;83.04
50710;BME280;37033;49.994;21.992;2023-03-31T00:36:15;98471.66;;;5.88;83.17
50710;BME280;37033;49.994;21.992;2023-03-31T00:38:49;98472.10;;;5.88;83.14
50710;BME280;37033;49.994;21.992;2023-03-31T00:41:21;98471.73;;;5.89;82.98
50710;BME280;37033;49.994;21.992;2023-03-31T00:44:09;98466.92;;;5.90;83.04
50710;BME280;37033;49.994;21.992;2023-03-31T00:46:44;98462.57;;;5.92;83.12
50710;BME280;37033;49.994;21.992;2023-03-31T00:49:22;98457.04;;;5.93;82.90
50710;BME280;37033;49.994;21.992;2023-03-31T00:51:58;98460.30;;;5.94;83.18
50710;BME280;37033;49.994;21.992;2023-03-31T00:54:32;98460.13;;;5.95;83.37
50710;BME280;37033;49.994;21.992;2023-03-31T00:57:04;98452.15;;;5.97;83.33
50710;BME280;37033;49.994;21.992;2023-03-31T00:59:39;98452.67;;;5.98;83.41
50710;BME280;37033;49.994;21.992;2023-03-31T01:02:09;98453.06;;;5.99;83.39
50710;BME280;37033;49.994;21.992;2023-03-31T01:04:45;98453.55;;;5.99;83.32
50710;BME280;37033;49.994;21.992;2023-03-31T01:07:24;98456.12;;;6.00;83.38
50710;BME280;37033;49.994;21.992;2023-03-31T01:09:59;98453.34;;;6.02;83.41
50710;BME280;37033;49.994;21.992;2023-03-31T01:12:33;98457.98;;;6.02;83.11
50710;BME280;37033;49.994;21.992;2023-03-31T01:15:08;98451.20;;;6.03;83.05
50710;BME280;37033;49.994;21.992;2023-03-31T01:17:39;98447.10;;;6.03;82.82
50710;BME280;37033;49.994;21.992;2023-03-31T01:20:19;98440.98;;;6.04;83.08
50710;BME280;37033;49.994;21.992;2023-03-31T01:23:24;98443.02;;;6.06;83.16
50710;BME280;37033;49.994;21.992;2023-03-31T01:29:03;98440.16;;;6.08;83.10
50710;BME280;37033;49.994;21.992;2023-03-31T01:34:59;98430.82;;;6.10;83.07
50710;BME280;37033;49.994;21.992;2023-03-31T01:38:03;98430.67;;;6.11;82.92
50710;BME280;37033;49.994;21.992;2023-03-31T01:40:51;98427.30;;;6.12;82.99
50710;BME280;37033;49.994;21.992;2023-03-31T01:43:34;98428.45;;;6.13;82.99
50710;BME280;37033;49.994;21.992;2023-03-31T01:46:12;98427.65;;;6.13;83.04
50710;BME280;37033;49.994;21.992;2023-03-31T01:48:53;98427.11;;;6.15;82.76
50710;BME280;37033;49.994;21.992;2023-03-31T01:51:33;98429.64;;;6.16;82.86
50710;BME280;37033;49.994;21.992;2023-03-31T01:54:10;98425.11;;;6.16;82.94
50710;BME280;37033;49.994;21.992;2023-03-31T01:56:47;98429.12;;;6.17;82.99
50710;BME280;37033;49.994;21.992;2023-03-31T01:59:24;98425.42;;;6.18;82.71
50710;BME280;37033;49.994;21.992;2023-03-31T02:02:00;98426.48;;;6.18;82.85
50710;BME280;37033;49.994;21.992;2023-03-31T02:04:37;98426.86;;;6.17;82.85
50710;BME280;37033;49.994;21.992;2023-03-31T02:07:13;98432.48;;;6.17;82.65
50710;BME280;37033;49.994;21.992;2023-03-31T02:09:49;98436.05;;;6.18;82.63
50710;BME280;37033;49.994;21.992;2023-03-31T02:12:26;98436.61;;;6.19;82.61
50710;BME280;37033;49.994;21.992;2023-03-31T02:15:00;98440.86;;;6.19;82.68
50710;BME280;37033;49.994;21.992;2023-03-31T02:17:33;98438.34;;;6.19;82.52
50710;BME280;37033;49.994;21.992;2023-03-31T02:20:11;98437.42;;;6.19;82.52
50710;BME280;37033;49.994;21.992;2023-03-31T02:22:47;98439.42;;;6.19;82.22
50710;BME280;37033;49.994;21.992;2023-03-31T02:25:23;98434.40;;;6.19;82.45
50710;BME280;37033;49.994;21.992;2023-03-31T02:27:57;98439.02;;;6.18;82.46
50710;BME280;37033;49.994;21.992;2023-03-31T02:30:34;98439.39;;;6.18;82.40
50710;BME280;37033;49.994;21.992;2023-03-31T02:33:07;98444.41;;;6.17;82.46
50710;BME280;37033;49.994;21.992;2023-03-31T02:35:38;98437.87;;;6.17;82.28
50710;BME280;37033;49.994;21.992;2023-03-31T02:38:08;98439.75;;;6.17;82.36
50710;BME280;37033;49.994;21.992;2023-03-31T02:40:41;98441.07;;;6.18;82.27
50710;BME280;37033;49.994;21.992;2023-03-31T02:43:12;98436.80;;;6.17;82.28
50710;BME280;37033;49.994;21.992;2023-03-31T02:45:45;98441.98;;;6.18;82.72
50710;BME280;37033;49.994;21.992;2023-03-31T02:48:19;98433.13;;;6.18;82.58
50710;BME280;37033;49.994;21.992;2023-03-31T02:51:27;98438.05;;;6.17;82.77
50710;BME280;37033;49.994;21.992;2023-03-31T02:54:27;98433.60;;;6.17;82.82
50710;BME280;37033;49.994;21.992;2023-03-31T03:00:04;98434.33;;;6.18;83.09
50710;BME280;37033;49.994;21.992;2023-03-31T03:02:48;98429.14;;;6.18;83.37
50710;BME280;37033;49.994;21.992;2023-03-31T03:05:30;98431.98;;;6.17;83.40
50710;BME280;37033;49.994;21.992;2023-03-31T03:08:09;98436.44;;;6.16;83.68
50710;BME280;37033;49.994;21.992;2023-03-31T03:10:51;98434.41;;;6.15;83.63
50710;BME280;37033;49.994;21.992;2023-03-31T03:13:30;98430.95;;;6.14;83.42
50710;BME280;37033;49.994;21.992;2023-03-31T03:16:06;98428.73;;;6.13;83.36
50710;BME280;37033;49.994;21.992;2023-03-31T03:18:42;98431.19;;;6.12;83.61
50710;BME280;37033;49.994;21.992;2023-03-31T03:21:12;98426.23;;;6.11;83.59
50710;BME280;37033;49.994;21.992;2023-03-31T03:23:43;98421.52;;;6.07;84.00
50710;BME280;37033;49.994;21.992;2023-03-31T03:26:14;98428.33;;;6.05;84.10
50710;BME280;37033;49.994;21.992;2023-03-31T03:28:49;98422.23;;;6.03;84.37
50710;BME280;37033;49.994;21.992;2023-03-31T03:31:20;98421.37;;;6.00;84.22
50710;BME280;37033;49.994;21.992;2023-03-31T03:33:52;98420.60;;;6.00;84.19
50710;BME280;37033;49.994;21.992;2023-03-31T03:36:23;98416.37;;;5.99;84.30
50710;BME280;37033;49.994;21.992;2023-03-31T03:38:54;98415.27;;;5.98;84.45
50710;BME280;37033;49.994;21.992;2023-03-31T03:41:24;98412.34;;;5.97;84.79
50710;BME280;37033;49.994;21.992;2023-03-31T03:43:55;98406.27;;;5.96;84.94
50710;BME280;37033;49.994;21.992;2023-03-31T03:46:26;98413.08;;;5.94;84.65
50710;BME280;37033;49.994;21.992;2023-03-31T03:48:56;98420.25;;;5.95;84.83
50710;BME280;37033;49.994;21.992;2023-03-31T03:51:27;98420.59;;;5.95;84.81
50710;BME280;37033;49.994;21.992;2023-03-31T03:53:58;98420.49;;;5.94;84.78
50710;BME280;37033;49.994;21.992;2023-03-31T03:56:28;98418.41;;;5.92;84.65
50710;BME280;37033;49.994;21.992;2023-03-31T03:58:59;98419.41;;;5.92;84.90
50710;BME280;37033;49.994;21.992;2023-03-31T04:01:30;98417.50;;;5.90;84.71
50710;BME280;37033;49.994;21.992;2023-03-31T04:04:00;98424.59;;;5.89;84.82
50710;BME280;37033;49.994;21.992;2023-03-31T04:06:31;98424.58;;;5.89;84.76
50710;BME280;37033;49.994;21.992;2023-03-31T04:09:02;98424.85;;;5.88;84.59
50710;BME280;37033;49.994;21.992;2023-03-31T04:11:33;98423.91;;;5.88;84.98
50710;BME280;37033;49.994;21.992;2023-03-31T04:14:03;98423.44;;;5.88;84.86
50710;BME280;37033;49.994;21.992;2023-03-31T04:16:34;98427.07;;;5.89;84.98
50710;BME280;37033;49.994;21.992;2023-03-31T04:19:06;98420.83;;;5.90;84.99
50710;BME280;37033;49.994;21.992;2023-03-31T04:21:39;98418.67;;;5.90;85.06
50710;BME280;37033;49.994;21.992;2023-03-31T04:24:13;98420.95;;;5.90;85.13
50710;BME280;37033;49.994;21.992;2023-03-31T04:26:49;98419.44;;;5.90;84.89
50710;BME280;37033;49.994;21.992;2023-03-31T04:29:20;98425.19;;;5.92;84.73
50710;BME280;37033;49.994;21.992;2023-03-31T04:31:55;98422.58;;;5.93;84.88
50710;BME280;37033;49.994;21.992;2023-03-31T04:34:27;98419.67;;;5.95;85.04
50710;BME280;37033;49.994;21.992;2023-03-31T04:37:03;98420.71;;;5.95;84.80
50710;BME280;37033;49.994;21.992;2023-03-31T04:39:33;98419.83;;;5.97;84.76
50710;BME280;37033;49.994;21.992;2023-03-31T04:42:04;98415.20;;;5.97;84.54
50710;BME280;37033;49.994;21.992;2023-03-31T04:44:35;98417.90;;;6.00;84.53
50710;BME280;37033;49.994;21.992;2023-03-31T04:47:05;98417.48;;;6.01;84.67
50710;BME280;37033;49.994;21.992;2023-03-31T04:49:36;98416.27;;;6.02;84.48
50710;BME280;37033;49.994;21.992;2023-03-31T04:52:07;98412.15;;;6.03;84.57
50710;BME280;37033;49.994;21.992;2023-03-31T04:54:37;98413.03;;;6.04;84.57
50710;BME280;37033;49.994;21.992;2023-03-31T04:57:08;98414.95;;;6.06;84.64
50710;BME280;37033;49.994;21.992;2023-03-31T04:59:39;98416.02;;;6.07;84.55
50710;BME280;37033;49.994;21.992;2023-03-31T05:02:10;98416.81;;;6.09;84.73
50710;BME280;37033;49.994;21.992;2023-03-31T05:04:41;98414.52;;;6.10;84.71
50710;BME280;37033;49.994;21.992;2023-03-31T05:07:11;98413.86;;;6.10;84.69
50710;BME280;37033;49.994;21.992;2023-03-31T05:09:42;98409.70;;;6.12;84.88
50710;BME280;37033;49.994;21.992;2023-03-31T05:12:13;98408.63;;;6.12;84.74
50710;BME280;37033;49.994;21.992;2023-03-31T05:14:44;98407.59;;;6.14;84.89
50710;BME280;37033;49.994;21.992;2023-03-31T05:17:15;98410.30;;;6.15;84.55
50710;BME280;37033;49.994;21.992;2023-03-31T05:19:46;98407.29;;;6.17;84.67
50710;BME280;37033;49.994;21.992;2023-03-31T05:22:16;98406.66;;;6.19;84.77
50710;BME280;37033;49.994;21.992;2023-03-31T05:24:49;98411.73;;;6.21;84.56
50710;BME280;37033;49.994;21.992;2023-03-31T05:27:20;98409.78;;;6.23;84.67
50710;BME280;37033;49.994;21.992;2023-03-31T05:29:50;98404.50;;;6.26;84.57
50710;BME280;37033;49.994;21.992;2023-03-31T05:32:21;98402.54;;;6.28;84.59
50710;BME280;37033;49.994;21.992;2023-03-31T05:34:52;98397.66;;;6.32;84.96
50710;BME280;37033;49.994;21.992;2023-03-31T05:37:25;98399.33;;;6.35;84.61
50710;BME280;37033;49.994;21.992;2023-03-31T05:39:56;98394.05;;;6.38;84.75
50710;BME280;37033;49.994;21.992;2023-03-31T05:42:27;98397.79;;;6.41;84.64
50710;BME280;37033;49.994;21.992;2023-03-31T05:44:58;98397.89;;;6.44;84.42
50710;BME280;37033;49.994;21.992;2023-03-31T05:47:28;98395.39;;;6.47;84.58
50710;BME280;37033;49.994;21.992;2023-03-31T05:49:59;98392.58;;;6.50;84.37
50710;BME280;37033;49.994;21.992;2023-03-31T05:52:32;98387.15;;;6.54;84.38
50710;BME280;37033;49.994;21.992;2023-03-31T05:55:03;98386.66;;;6.57;84.40
50710;BME280;37033;49.994;21.992;2023-03-31T05:57:34;98393.02;;;6.62;84.37
50710;BME280;37033;49.994;21.992;2023-03-31T06:00:06;98391.64;;;6.66;84.39
50710;BME280;37033;49.994;21.992;2023-03-31T06:02:39;98395.32;;;6.69;84.34
50710;BME280;37033;49.994;21.992;2023-03-31T06:05:11;98393.35;;;6.73;84.26
50710;BME280;37033;49.994;21.992;2023-03-31T06:07:42;98393.27;;;6.77;84.34
50710;BME280;37033;49.994;21.992;2023-03-31T06:10:14;98393.75;;;6.81;84.34
50710;BME280;37033;49.994;21.992;2023-03-31T06:12:44;98385.37;;;6.86;84.17
50710;BME280;37033;49.994;21.992;2023-03-31T06:15:15;98386.13;;;6.92;84.26
50710;BME280;37033;49.994;21.992;2023-03-31T06:17:46;98384.45;;;6.98;84.17
50710;BME280;37033;49.994;21.992;2023-03-31T06:20:17;98380.63;;;7.05;84.11
50710;BME280;37033;49.994;21.992;2023-03-31T06:22:48;98382.11;;;7.12;83.93
50710;BME280;37033;49.994;21.992;2023-03-31T06:25:19;98377.42;;;7.19;83.94
50710;BME280;37033;49.994;21.992;2023-03-31T06:27:50;98375.07;;;7.27;83.82
50710;BME280;37033;49.994;21.992;2023-03-31T06:30:20;98379.79;;;7.35;83.85
50710;BME280;37033;49.994;21.992;2023-03-31T06:32:51;98383.14;;;7.45;83.68
50710;BME280;37033;49.994;21.992;2023-03-31T06:35:22;98376.71;;;7.52;83.54
50710;BME280;37033;49.994;21.992;2023-03-31T06:37:52;98375.34;;;7.57;83.36
50710;BME280;37033;49.994;21.992;2023-03-31T06:40:23;98370.41;;;7.61;83.12
50710;BME280;37033;49.994;21.992;2023-03-31T06:42:54;98371.01;;;7.65;83.14
50710;BME280;37033;49.994;21.992;2023-03-31T06:45:25;98373.17;;;7.72;83.14
50710;BME280;37033;49.994;21.992;2023-03-31T06:47:56;98377.08;;;7.80;82.93
50710;BME280;37033;49.994;21.992;2023-03-31T06:50:27;98377.56;;;7.87;83.08
50710;BME280;37033;49.994;21.992;2023-03-31T06:52:57;98374.04;;;7.95;82.86
50710;BME280;37033;49.994;21.992;2023-03-31T06:55:28;98376.46;;;8.05;82.81
50710;BME280;37033;49.994;21.992;2023-03-31T06:57:59;98380.01;;;8.16;82.97
50710;BME280;37033;49.994;21.992;2023-03-31T07:00:29;98378.55;;;8.28;82.46
50710;BME280;37033;49.994;21.992;2023-03-31T07:03:00;98381.17;;;8.38;82.12
50710;BME280;37033;49.994;21.992;2023-03-31T07:05:32;98381.80;;;8.49;81.98
50710;BME280;37033;49.994;21.992;2023-03-31T07:08:03;98380.84;;;8.58;81.46
50710;BME280;37033;49.994;21.992;2023-03-31T07:10:33;98375.40;;;8.66;81.21
50710;BME280;37033;49.994;21.992;2023-03-31T07:13:04;98381.23;;;8.75;81.19
50710;BME280;37033;49.994;21.992;2023-03-31T07:15:35;98380.63;;;8.82;81.18
50710;BME280;37033;49.994;21.992;2023-03-31T07:18:07;98378.61;;;8.93;81.28
50710;BME280;37033;49.994;21.992;2023-03-31T07:20:37;98375.60;;;9.01;81.17
50710;BME280;37033;49.994;21.992;2023-03-31T07:23:08;98371.89;;;9.10;80.99
50710;BME280;37033;49.994;21.992;2023-03-31T07:25:39;98375.50;;;9.20;80.92
50710;BME280;37033;49.994;21.992;2023-03-31T07:28:10;98376.00;;;9.32;80.79
50710;BME280;37033;49.994;21.992;2023-03-31T07:30:41;98370.14;;;9.45;80.56
50710;BME280;37033;49.994;21.992;2023-03-31T07:33:12;98373.06;;;9.59;80.24
50710;BME280;37033;49.994;21.992;2023-03-31T07:35:42;98375.06;;;9.73;79.77
50710;BME280;37033;49.994;21.992;2023-03-31T07:38:13;98377.10;;;9.84;79.53
50710;BME280;37033;49.994;21.992;2023-03-31T07:40:44;98374.02;;;9.94;79.14
50710;BME280;37033;49.994;21.992;2023-03-31T07:43:15;98369.66;;;10.02;78.58
50710;BME280;37033;49.994;21.992;2023-03-31T07:45:45;98369.75;;;10.10;78.45
50710;BME280;37033;49.994;21.992;2023-03-31T07:48:16;98367.63;;;10.19;78.50
50710;BME280;37033;49.994;21.992;2023-03-31T07:50:46;98366.94;;;10.29;78.47
50710;BME280;37033;49.994;21.992;2023-03-31T07:53:17;98363.03;;;10.41;77.73
50710;BME280;37033;49.994;21.992;2023-03-31T07:55:48;98357.86;;;10.51;77.83
50710;BME280;37033;49.994;21.992;2023-03-31T07:58:19;98356.70;;;10.61;77.69
50710;BME280;37033;49.994;21.992;2023-03-31T08:00:49;98355.65;;;10.73;76.94
50710;BME280;37033;49.994;21.992;2023-03-31T08:03:20;98352.95;;;10.87;76.69
50710;BME280;37033;49.994;21.992;2023-03-31T08:05:52;98351.20;;;11.02;76.31
50710;BME280;37033;49.994;21.992;2023-03-31T08:08:23;98343.48;;;11.16;75.09
50710;BME280;37033;49.994;21.992;2023-03-31T08:10:54;98344.74;;;11.27;75.41
50710;BME280;37033;49.994;21.992;2023-03-31T08:13:25;98343.66;;;11.39;74.76
50710;BME280;37033;49.994;21.992;2023-03-31T08:15:55;98344.20;;;11.44;73.81
50710;BME280;37033;49.994;21.992;2023-03-31T08:18:26;98340.05;;;11.45;73.41
50710;BME280;37033;49.994;21.992;2023-03-31T08:20:56;98336.91;;;11.44;73.47
50710;BME280;37033;49.994;21.992;2023-03-31T08:23:27;98329.27;;;11.46;73.28
50710;BME280;37033;49.994;21.992;2023-03-31T08:26:09;98327.05;;;11.52;72.92
50710;BME280;37033;49.994;21.992;2023-03-31T08:28:40;98325.52;;;11.60;72.24
50710;BME280;37033;49.994;21.992;2023-03-31T08:31:11;98319.40;;;11.67;72.70
50710;BME280;37033;49.994;21.992;2023-03-31T08:33:44;98320.34;;;11.82;72.77
50710;BME280;37033;49.994;21.992;2023-03-31T08:36:15;98318.27;;;11.97;72.64
50710;BME280;37033;49.994;21.992;2023-03-31T08:38:46;98315.08;;;12.11;71.85
50710;BME280;37033;49.994;21.992;2023-03-31T08:41:30;98310.58;;;12.17;71.42
50710;BME280;37033;49.994;21.992;2023-03-31T08:44:06;98314.41;;;12.25;70.87
50710;BME280;37033;49.994;21.992;2023-03-31T08:46:40;98310.63;;;12.32;70.09
50710;BME280;37033;49.994;21.992;2023-03-31T08:49:15;98307.03;;;12.33;70.07
50710;BME280;37033;49.994;21.992;2023-03-31T08:51:50;98307.84;;;12.37;69.91
50710;BME280;37033;49.994;21.992;2023-03-31T08:54:30;98305.40;;;12.42;69.26
50710;BME280;37033;49.994;21.992;2023-03-31T08:57:01;98302.61;;;12.44;69.45
50710;BME280;37033;49.994;21.992;2023-03-31T08:59:36;98295.35;;;12.46;69.10
50710;BME280;37033;49.994;21.992;2023-03-31T09:02:17;98293.33;;;12.49;69.28
50710;BME280;37033;49.994;21.992;2023-03-31T09:05:16;98290.30;;;12.55;69.48
50710;BME280;37033;49.994;21.992;2023-03-31T09:07:57;98284.75;;;12.61;69.05
50710;BME280;37033;49.994;21.992;2023-03-31T09:10:38;98282.35;;;12.63;68.57
50710;BME280;37033;49.994;21.992;2023-03-31T09:13:31;98277.42;;;12.66;68.33
50710;BME280;37033;49.994;21.992;2023-03-31T09:16:06;98274.88;;;12.71;68.55
50710;BME280;37033;49.994;21.992;2023-03-31T09:18:41;98266.84;;;12.74;68.19
50710;BME280;37033;49.994;21.992;2023-03-31T09:21:20;98268.08;;;12.78;68.44
50710;BME280;37033;49.994;21.992;2023-03-31T09:23:56;98262.19;;;12.84;67.91
50710;BME280;37033;49.994;21.992;2023-03-31T09:26:35;98261.30;;;12.86;68.05
50710;BME280;37033;49.994;21.992;2023-03-31T09:29:12;98258.43;;;12.91;67.99
50710;BME280;37033;49.994;21.992;2023-03-31T09:31:47;98257.42;;;12.94;67.53
50710;BME280;37033;49.994;21.992;2023-03-31T09:34:23;98257.55;;;12.95;67.27
50710;BME280;37033;49.994;21.992;2023-03-31T09:36:54;98251.23;;;12.96;67.10
50710;BME280;37033;49.994;21.992;2023-03-31T09:39:24;98251.98;;;12.98;67.11
50710;BME280;37033;49.994;21.992;2023-03-31T09:41:55;98252.36;;;13.00;66.74
50710;BME280;37033;49.994;21.992;2023-03-31T09:44:29;98250.20;;;13.03;67.12
50710;BME280;37033;49.994;21.992;2023-03-31T09:47:02;98244.30;;;13.11;66.98
50710;BME280;37033;49.994;21.992;2023-03-31T09:49:36;98240.09;;;13.17;66.62
50710;BME280;37033;49.994;21.992;2023-03-31T09:52:13;98239.83;;;13.22;66.59
50710;BME280;37033;49.994;21.992;2023-03-31T09:54:48;98235.84;;;13.30;66.91
50710;BME280;37033;49.994;21.992;2023-03-31T09:57:23;98225.97;;;13.37;66.56
50710;BME280;37033;49.994;21.992;2023-03-31T10:00:03;98228.52;;;13.38;66.36
50710;BME280;37033;49.994;21.992;2023-03-31T10:02:46;98224.89;;;13.41;65.78
50710;BME280;37033;49.994;21.992;2023-03-31T10:05:28;98216.27;;;13.42;65.69
50710;BME280;37033;49.994;21.992;2023-03-31T10:11:09;98212.86;;;13.53;65.58
50710;BME280;37033;49.994;21.992;2023-03-31T10:13:46;98208.19;;;13.66;65.14
50710;BME280;37033;49.994;21.992;2023-03-31T10:16:26;98200.66;;;13.79;64.84
50710;BME280;37033;49.994;21.992;2023-03-31T10:19:12;98191.95;;;13.94;64.27
50710;BME280;37033;49.994;21.992;2023-03-31T10:21:46;98188.08;;;14.07;63.84
50710;BME280;37033;49.994;21.992;2023-03-31T10:24:19;98191.58;;;14.22;64.03
50710;BME280;37033;49.994;21.992;2023-03-31T10:26:53;98186.71;;;14.33;63.57
50710;BME280;37033;49.994;21.992;2023-03-31T10:29:29;98177.11;;;14.43;63.03
50710;BME280;37033;49.994;21.992;2023-03-31T10:32:08;98170.71;;;14.55;62.56
50710;BME280;37033;49.994;21.992;2023-03-31T10:34:41;98159.66;;;14.67;62.41
50710;BME280;37033;49.994;21.992;2023-03-31T10:37:15;98155.06;;;14.81;61.74
50710;BME280;37033;49.994;21.992;2023-03-31T10:39:47;98156.21;;;14.87;60.86
50710;BME280;37033;49.994;21.992;2023-03-31T10:42:22;98156.38;;;14.97;61.15
50710;BME280;37033;49.994;21.992;2023-03-31T10:45:11;98153.88;;;15.02;60.65
50710;BME280;37033;49.994;21.992;2023-03-31T10:47:42;98146.89;;;15.19;60.76
50710;BME280;37033;49.994;21.992;2023-03-31T10:50:18;98143.84;;;15.44;60.91
50710;BME280;37033;49.994;21.992;2023-03-31T10:52:49;98131.36;;;15.68;59.31
50710;BME280;37033;49.994;21.992;2023-03-31T10:55:23;98129.85;;;15.84;59.24
50710;BME280;37033;49.994;21.992;2023-03-31T10:57:59;98130.33;;;16.00;59.10
50710;BME280;37033;49.994;21.992;2023-03-31T11:00:36;98120.29;;;16.06;58.34
50710;BME280;37033;49.994;21.992;2023-03-31T11:03:33;98118.78;;;16.07;58.77
50710;BME280;37033;49.994;21.992;2023-03-31T11:06:11;98115.27;;;15.99;57.16
50710;BME280;37033;49.994;21.992;2023-03-31T11:08:53;98115.90;;;15.93;57.65
50710;BME280;37033;49.994;21.992;2023-03-31T11:11:49;98113.13;;;15.85;56.82
50710;BME280;37033;49.994;21.992;2023-03-31T11:14:34;98115.06;;;15.76;57.89
50710;BME280;37033;49.994;21.992;2023-03-31T11:17:20;98111.11;;;15.73;57.52
50710;BME280;37033;49.994;21.992;2023-03-31T11:19:54;98109.83;;;15.63;57.38
50710;BME280;37033;49.994;21.992;2023-03-31T11:22:30;98107.33;;;15.54;57.10
50710;BME280;37033;49.994;21.992;2023-03-31T11:25:14;98108.41;;;15.65;57.76
50710;BME280;37033;49.994;21.992;2023-03-31T11:28:09;98107.34;;;15.86;57.17
50710;BME280;37033;49.994;21.992;2023-03-31T11:30:47;98111.88;;;15.93;56.55
50710;BME280;37033;49.994;21.992;2023-03-31T11:33:33;98113.42;;;15.96;56.79
50710;BME280;37033;49.994;21.992;2023-03-31T11:36:14;98109.77;;;15.92;56.25
50710;BME280;37033;49.994;21.992;2023-03-31T11:38:55;98106.33;;;15.82;56.69
50710;BME280;37033;49.994;21.992;2023-03-31T11:41:33;98100.91;;;15.73;56.83
50710;BME280;37033;49.994;21.992;2023-03-31T11:44:10;98094.98;;;15.66;56.88
50710;BME280;37033;49.994;21.992;2023-03-31T11:46:40;98095.80;;;15.58;57.08
50710;BME280;37033;49.994;21.992;2023-03-31T11:49:16;98095.14;;;15.50;57.71
50710;BME280;37033;49.994;21.992;2023-03-31T11:51:52;98096.33;;;15.48;57.53
50710;BME280;37033;49.994;21.992;2023-03-31T11:54:28;98094.38;;;15.39;57.78
50710;BME280;37033;49.994;21.992;2023-03-31T11:57:04;98095.50;;;15.32;57.40
50710;BME280;37033;49.994;21.992;2023-03-31T11:59:39;98095.63;;;15.23;57.80
50710;BME280;37033;49.994;21.992;2023-03-31T12:02:16;98094.37;;;15.14;57.74
50710;BME280;37033;49.994;21.992;2023-03-31T12:04:52;98090.27;;;15.08;58.35
50710;BME280;37033;49.994;21.992;2023-03-31T12:07:30;98087.14;;;15.05;58.47
50710;BME280;37033;49.994;21.992;2023-03-31T12:10:10;98083.52;;;15.00;57.94
50710;BME280;37033;49.994;21.992;2023-03-31T12:12:45;98084.40;;;14.88;57.83
50710;BME280;37033;49.994;21.992;2023-03-31T12:15:21;98086.17;;;14.71;57.87
50710;BME280;37033;49.994;21.992;2023-03-31T12:17:58;98086.13;;;14.57;58.10
50710;BME280;37033;49.994;21.992;2023-03-31T12:20:36;98086.68;;;14.46;58.33
50710;BME280;37033;49.994;21.992;2023-03-31T12:23:13;98082.36;;;14.36;58.52
50710;BME280;37033;49.994;21.992;2023-03-31T12:25:53;98078.75;;;14.30;58.75
50710;BME280;37033;49.994;21.992;2023-03-31T12:28:26;98075.72;;;14.24;59.02
50710;BME280;37033;49.994;21.992;2023-03-31T12:30:57;98073.39;;;14.20;58.96
50710;BME280;37033;49.994;21.992;2023-03-31T12:33:31;98069.95;;;14.15;58.81
50710;BME280;37033;49.994;21.992;2023-03-31T12:36:16;98071.70;;;14.13;58.98
50710;BME280;37033;49.994;21.992;2023-03-31T12:39:00;98068.84;;;14.13;59.18
50710;BME280;37033;49.994;21.992;2023-03-31T12:41:58;98066.28;;;14.16;58.72
50710;BME280;37033;49.994;21.992;2023-03-31T12:44:37;98057.80;;;14.13;58.68
50710;BME280;37033;49.994;21.992;2023-03-31T12:47:41;98052.31;;;14.07;58.61
50710;BME280;37033;49.994;21.992;2023-03-31T12:50:37;98054.11;;;14.04;58.68
50710;BME280;37033;49.994;21.992;2023-03-31T12:53:17;98059.52;;;13.97;58.22
50710;BME280;37033;49.994;21.992;2023-03-31T12:55:55;98060.91;;;13.92;58.70
50710;BME280;37033;49.994;21.992;2023-03-31T12:58:41;98063.44;;;13.91;58.67
50710;BME280;37033;49.994;21.992;2023-03-31T13:01:14;98066.20;;;13.85;58.66
50710;BME280;37033;49.994;21.992;2023-03-31T13:03:48;98062.94;;;13.76;58.64
50710;BME280;37033;49.994;21.992;2023-03-31T13:09:39;98057.02;;;13.67;59.14
50710;BME280;37033;49.994;21.992;2023-03-31T13:12:15;98055.92;;;13.62;59.30
50710;BME280;37033;49.994;21.992;2023-03-31T13:14:48;98048.89;;;13.60;59.31
50710;BME280;37033;49.994;21.992;2023-03-31T13:17:35;98042.40;;;13.57;59.06
50710;BME280;37033;49.994;21.992;2023-03-31T13:20:28;98037.40;;;13.55;59.09
50710;BME280;37033;49.994;21.992;2023-03-31T13:23:19;98034.66;;;13.51;59.51
50710;BME280;37033;49.994;21.992;2023-03-31T13:25:51;98028.50;;;13.55;59.59
50710;BME280;37033;49.994;21.992;2023-03-31T13:28:33;98027.01;;;13.57;59.66
50710;BME280;37033;49.994;21.992;2023-03-31T13:31:08;98019.55;;;13.59;59.71
50710;BME280;37033;49.994;21.992;2023-03-31T13:33:43;98015.23;;;13.61;59.46
50710;BME280;37033;49.994;21.992;2023-03-31T13:36:37;98012.38;;;13.60;59.39
50710;BME280;37033;49.994;21.992;2023-03-31T13:42:39;98008.80;;;13.54;58.89
50710;BME280;37033;49.994;21.992;2023-03-31T13:45:26;98005.25;;;13.55;58.63
50710;BME280;37033;49.994;21.992;2023-03-31T13:48:14;98008.11;;;13.57;58.34
50710;BME280;37033;49.994;21.992;2023-03-31T13:50:59;98006.97;;;13.60;58.29
50710;BME280;37033;49.994;21.992;2023-03-31T13:53:52;98006.84;;;13.62;58.08
50710;BME280;37033;49.994;21.992;2023-03-31T13:56:46;98002.77;;;13.60;58.23